Wetterdaten: Woche 21.12.09 - 27.12.09 (KW52)
Datum Zeit Temperatur Luftfeuchte Luftdruck Niederschlag Wind Richtung Sonnenschein Solar Taupunkt Windchill Windben
21.12.2009 00:00 -0.3 C 95 % 1006.5 hPa 0.8 l/m 0.4 km/h (0 Bft) SW 0.00 h 0 W/m -1.0 C -0.3 C 1.8 km/h (1 Bft)
21.12.2009 01:00 0.0 C 95 % 1006.8 hPa 0.4 l/m 0.2 km/h (0 Bft) S-SW 0.00 h 0 W/m -0.7 C 0.0 C 0.9 km/h (0 Bft)
21.12.2009 02:00 0.2 C 95 % 1006.9 hPa 0.6 l/m 0.1 km/h (0 Bft) S 0.00 h 0 W/m -0.5 C 0.2 C 0.7 km/h (0 Bft)
21.12.2009 03:00 0.3 C 95 % 1006.7 hPa 0.8 l/m 0.0 km/h (0 Bft) N 0.00 h 0 W/m -0.4 C 0.3 C 0.0 km/h (0 Bft)
21.12.2009 04:00 0.3 C 96 % 1006.2 hPa 0.4 l/m 0.0 km/h (0 Bft) S-SO 0.00 h 0 W/m -0.3 C 0.3 C 0.2 km/h (0 Bft)
21.12.2009 05:00 0.2 C 96 % 1006.2 hPa 0.2 l/m 0.0 km/h (0 Bft) O-NO 0.00 h 0 W/m -0.4 C 0.2 C 0.3 km/h (0 Bft)
21.12.2009 06:00 0.3 C 96 % 1006.5 hPa 0.4 l/m 0.5 km/h (0 Bft) S 0.00 h 0 W/m -0.2 C 0.3 C 1.7 km/h (1 Bft)
21.12.2009 07:00 0.6 C 96 % 1006.4 hPa 0.4 l/m 1.4 km/h (1 Bft) S 0.00 h 0 W/m 0.0 C 0.5 C 3.7 km/h (1 Bft)
21.12.2009 08:00 0.7 C 96 % 1005.8 hPa 0.2 l/m 1.3 km/h (1 Bft) S-SO 0.00 h 8 W/m 0.1 C 0.7 C 2.7 km/h (1 Bft)
21.12.2009 09:00 0.7 C 96 % 1005.0 hPa 0.0 l/m 3.8 km/h (1 Bft) O-SO 0.00 h 25 W/m 0.1 C 0.2 C 5.4 km/h (1 Bft)
21.12.2009 10:00 0.8 C 95 % 1003.8 hPa 0.0 l/m 4.0 km/h (1 Bft) O-SO 0.08 h 89 W/m 0.2 C -0.2 C 6.1 km/h (2 Bft)
21.12.2009 11:00 1.8 C 95 % 1003.8 hPa 0.0 l/m 1.2 km/h (1 Bft) N-NW 0.50 h 157 W/m 1.0 C 1.6 C 2.6 km/h (1 Bft)
21.12.2009 12:00 1.8 C 92 % 1002.7 hPa 0.0 l/m 0.8 km/h (0 Bft) O 0.00 h 145 W/m 0.6 C 1.7 C 2.3 km/h (1 Bft)
21.12.2009 13:00 2.1 C 88 % 1001.8 hPa 0.0 l/m 1.0 km/h (0 Bft) W-NW 0.00 h 132 W/m 0.4 C 2.1 C 2.5 km/h (1 Bft)
21.12.2009 14:00 2.1 C 88 % 1000.6 hPa 0.0 l/m 0.8 km/h (0 Bft) NW 0.00 h 80 W/m 0.3 C 2.1 C 2.1 km/h (1 Bft)
21.12.2009 15:00 1.8 C 87 % 999.5 hPa 0.0 l/m 0.4 km/h (0 Bft) O-SO 0.00 h 28 W/m -0.2 C 1.8 C 1.3 km/h (1 Bft)
21.12.2009 16:00 1.4 C 88 % 999.7 hPa 0.0 l/m 0.6 km/h (0 Bft) N 0.00 h 6 W/m -0.4 C 1.4 C 1.8 km/h (1 Bft)
21.12.2009 17:00 1.2 C 89 % 998.9 hPa 0.0 l/m 1.0 km/h (0 Bft) O-SO 0.00 h 0 W/m -0.4 C 1.1 C 2.6 km/h (1 Bft)
21.12.2009 18:00 1.0 C 90 % 997.1 hPa 0.0 l/m 1.5 km/h (1 Bft) N 0.00 h 0 W/m -0.4 C 1.0 C 3.3 km/h (1 Bft)
21.12.2009 19:00 0.8 C 91 % 995.9 hPa 0.0 l/m 0.9 km/h (0 Bft) O-NO 0.00 h 0 W/m -0.5 C 0.8 C 2.2 km/h (1 Bft)
21.12.2009 20:00 0.9 C 92 % 995.1 hPa 0.0 l/m 1.4 km/h (1 Bft) O-SO 0.00 h 0 W/m -0.3 C 0.7 C 2.9 km/h (1 Bft)
21.12.2009 21:00 1.0 C 91 % 994.8 hPa 0.0 l/m 0.5 km/h (0 Bft) O-SO 0.00 h 0 W/m -0.3 C 1.0 C 1.2 km/h (1 Bft)
21.12.2009 22:00 0.8 C 92 % 994.9 hPa 0.0 l/m 0.8 km/h (0 Bft) W 0.00 h 0 W/m -0.3 C 0.8 C 1.9 km/h (1 Bft)
21.12.2009 23:00 0.9 C 93 % 995.4 hPa 0.2 l/m 2.9 km/h (1 Bft) S-SO 0.00 h 0 W/m -0.1 C 0.3 C 4.7 km/h (1 Bft)
22.12.2009 00:00 0.8 C 93 % 994.7 hPa 0.0 l/m 0.9 km/h (0 Bft) O-SO 0.00 h 0 W/m -0.2 C 0.7 C 1.8 km/h (1 Bft)
22.12.2009 01:00 0.8 C 94 % 994.1 hPa 0.0 l/m 0.6 km/h (0 Bft) N-NO 0.00 h 0 W/m -0.0 C 0.8 C 1.9 km/h (1 Bft)
22.12.2009 02:00 0.7 C 95 % 994.0 hPa 0.0 l/m 1.2 km/h (1 Bft) O 0.00 h 0 W/m -0.0 C 0.7 C 2.3 km/h (1 Bft)
22.12.2009 03:00 0.7 C 95 % 993.8 hPa 0.0 l/m 0.9 km/h (0 Bft) O 0.00 h 0 W/m 0.0 C 0.6 C 1.6 km/h (1 Bft)
22.12.2009 04:00 1.5 C 95 % 993.3 hPa 0.0 l/m 4.1 km/h (1 Bft) S-SO 0.00 h 0 W/m 0.9 C 0.8 C 6.4 km/h (2 Bft)
22.12.2009 05:00 1.6 C 94 % 993.3 hPa 0.0 l/m 3.6 km/h (1 Bft) SO 0.00 h 0 W/m 0.7 C 0.9 C 6.6 km/h (2 Bft)
22.12.2009 06:00 1.9 C 92 % 993.0 hPa 0.0 l/m 2.7 km/h (1 Bft) S-SO 0.00 h 0 W/m 0.7 C 1.6 C 5.5 km/h (1 Bft)
22.12.2009 07:00 2.1 C 90 % 993.2 hPa 0.0 l/m 3.3 km/h (1 Bft) S-SO 0.00 h 0 W/m 0.6 C 1.6 C 6.6 km/h (2 Bft)
22.12.2009 08:00 2.3 C 89 % 993.5 hPa 0.0 l/m 2.2 km/h (1 Bft) W-NW 0.00 h 12 W/m 0.6 C 2.2 C 4.9 km/h (1 Bft)
22.12.2009 09:00 3.4 C 87 % 994.0 hPa 0.2 l/m 5.9 km/h (2 Bft) SW 0.00 h 38 W/m 1.4 C 2.0 C 10.8 km/h (2 Bft)
22.12.2009 10:00 4.4 C 84 % 994.4 hPa 0.0 l/m 8.3 km/h (2 Bft) SW 0.00 h 45 W/m 1.9 C 2.4 C 14.9 km/h (3 Bft)
22.12.2009 11:00 5.3 C 81 % 994.0 hPa 0.0 l/m 4.2 km/h (1 Bft) S-SO 0.00 h 48 W/m 2.3 C 4.6 C 8.1 km/h (2 Bft)
22.12.2009 12:00 5.8 C 79 % 993.9 hPa 0.0 l/m 2.7 km/h (1 Bft) O-SO 0.00 h 77 W/m 2.6 C 5.5 C 5.8 km/h (2 Bft)
22.12.2009 13:00 6.7 C 78 % 993.5 hPa 0.0 l/m 4.5 km/h (1 Bft) S-SO 0.38 h 159 W/m 3.1 C 6.0 C 7.9 km/h (2 Bft)
22.12.2009 14:00 8.2 C 73 % 992.7 hPa 0.0 l/m 5.6 km/h (1 Bft) S 0.53 h 127 W/m 3.6 C 7.5 C 10.8 km/h (2 Bft)
22.12.2009 15:00 7.8 C 74 % 992.4 hPa 0.0 l/m 3.7 km/h (1 Bft) SO 0.00 h 40 W/m 3.4 C 7.5 C 7.0 km/h (2 Bft)
22.12.2009 16:00 6.3 C 77 % 992.3 hPa 0.0 l/m 2.3 km/h (1 Bft) N-NO 0.00 h 11 W/m 2.6 C 6.2 C 4.4 km/h (1 Bft)
22.12.2009 17:00 4.0 C 84 % 992.1 hPa 0.0 l/m 0.8 km/h (0 Bft) NW 0.00 h 0 W/m 1.5 C 4.0 C 2.1 km/h (1 Bft)
22.12.2009 18:00 2.9 C 88 % 991.8 hPa 0.0 l/m 0.9 km/h (0 Bft) O-SO 0.00 h 0 W/m 1.2 C 2.9 C 1.9 km/h (1 Bft)
22.12.2009 19:00 2.7 C 91 % 992.0 hPa 0.0 l/m 1.9 km/h (1 Bft) O-SO 0.00 h 0 W/m 1.4 C 2.4 C 3.0 km/h (1 Bft)
22.12.2009 20:00 2.6 C 92 % 991.2 hPa 0.0 l/m 2.1 km/h (1 Bft) O-SO 0.00 h 0 W/m 1.5 C 2.2 C 3.5 km/h (1 Bft)
22.12.2009 21:00 2.4 C 94 % 990.0 hPa 0.2 l/m 1.7 km/h (1 Bft) SO 0.00 h 0 W/m 1.6 C 2.4 C 2.7 km/h (1 Bft)
22.12.2009 22:00 2.5 C 95 % 989.7 hPa 1.8 l/m 0.1 km/h (0 Bft) O-SO 0.00 h 0 W/m 1.8 C 2.5 C 0.3 km/h (0 Bft)
22.12.2009 23:00 2.2 C 95 % 989.9 hPa 2.6 l/m 2.1 km/h (1 Bft) O-SO 0.00 h 0 W/m 1.5 C 2.2 C 3.4 km/h (1 Bft)
23.12.2009 00:00 2.6 C 96 % 989.6 hPa 1.4 l/m 1.5 km/h (1 Bft) O-SO 0.00 h 0 W/m 2.0 C 2.5 C 2.6 km/h (1 Bft)
23.12.2009 01:00 2.6 C 96 % 989.5 hPa 0.8 l/m 0.3 km/h (0 Bft) O 0.00 h 0 W/m 2.0 C 2.6 C 0.7 km/h (0 Bft)
23.12.2009 02:00 2.7 C 97 % 989.6 hPa 1.2 l/m 0.3 km/h (0 Bft) O 0.00 h 0 W/m 2.3 C 2.7 C 0.7 km/h (0 Bft)
23.12.2009 03:00 2.6 C 97 % 990.2 hPa 0.8 l/m 0.6 km/h (0 Bft) O 0.00 h 0 W/m 2.1 C 2.6 C 1.4 km/h (1 Bft)
23.12.2009 04:00 2.6 C 97 % 991.7 hPa 0.2 l/m 6.4 km/h (2 Bft) W-SW 0.00 h 0 W/m 2.2 C 1.0 C 11.0 km/h (2 Bft)
23.12.2009 05:00 2.0 C 97 % 993.8 hPa 0.0 l/m 5.3 km/h (1 Bft) W 0.00 h 0 W/m 1.6 C 0.6 C 9.2 km/h (2 Bft)
23.12.2009 06:00 1.6 C 97 % 995.6 hPa 0.0 l/m 4.4 km/h (1 Bft) W 0.00 h 0 W/m 1.2 C 0.5 C 7.7 km/h (2 Bft)
23.12.2009 07:00 1.7 C 97 % 997.7 hPa 0.0 l/m 4.3 km/h (1 Bft) W 0.00 h 0 W/m 1.2 C 0.8 C 7.5 km/h (2 Bft)
23.12.2009 08:00 1.8 C 96 % 999.5 hPa 0.0 l/m 1.6 km/h (1 Bft) W-NW 0.00 h 14 W/m 1.2 C 1.6 C 3.4 km/h (1 Bft)
23.12.2009 09:00 1.8 C 96 % 1000.5 hPa 0.0 l/m 0.3 km/h (0 Bft) SW 0.00 h 30 W/m 1.2 C 1.8 C 0.9 km/h (0 Bft)
23.12.2009 10:00 2.4 C 96 % 1001.1 hPa 0.0 l/m 0.4 km/h (0 Bft) W 0.23 h 123 W/m 1.8 C 2.4 C 1.7 km/h (1 Bft)
23.12.2009 11:00 3.2 C 95 % 1000.6 hPa 0.0 l/m 1.3 km/h (1 Bft) S-SO 0.23 h 121 W/m 2.5 C 3.1 C 3.0 km/h (1 Bft)
23.12.2009 12:00 3.8 C 92 % 1000.3 hPa 0.0 l/m 1.1 km/h (0 Bft) SO 0.60 h 175 W/m 2.6 C 3.8 C 2.7 km/h (1 Bft)
23.12.2009 13:00 4.5 C 86 % 999.0 hPa 0.0 l/m 0.8 km/h (0 Bft) O-SO 0.78 h 183 W/m 2.5 C 4.5 C 2.3 km/h (1 Bft)
23.12.2009 14:00 4.8 C 82 % 998.6 hPa 0.0 l/m 0.7 km/h (0 Bft) N-NW 0.00 h 78 W/m 2.1 C 4.8 C 2.3 km/h (1 Bft)
23.12.2009 15:00 4.2 C 83 % 999.0 hPa 0.0 l/m 0.9 km/h (0 Bft) O-SO 0.00 h 32 W/m 1.6 C 4.1 C 1.9 km/h (1 Bft)
23.12.2009 16:00 3.7 C 85 % 999.7 hPa 0.0 l/m 1.0 km/h (0 Bft) O 0.00 h 11 W/m 1.5 C 3.6 C 2.9 km/h (1 Bft)
23.12.2009 17:00 3.2 C 87 % 999.1 hPa 0.0 l/m 3.0 km/h (1 Bft) N 0.00 h 0 W/m 1.2 C 2.8 C 6.5 km/h (2 Bft)
23.12.2009 18:00 3.2 C 88 % 998.4 hPa 0.2 l/m 1.7 km/h (1 Bft) W-NW 0.00 h 0 W/m 1.4 C 3.1 C 4.2 km/h (1 Bft)
23.12.2009 19:00 3.1 C 89 % 998.0 hPa 0.0 l/m 0.2 km/h (0 Bft) S 0.00 h 0 W/m 1.4 C 3.1 C 1.0 km/h (0 Bft)
23.12.2009 20:00 2.8 C 90 % 997.4 hPa 0.0 l/m 0.4 km/h (0 Bft) SO 0.00 h 0 W/m 1.3 C 2.8 C 1.4 km/h (1 Bft)
23.12.2009 21:00 2.7 C 91 % 997.1 hPa 0.0 l/m 0.0 km/h (0 Bft) N 0.00 h 0 W/m 1.4 C 2.7 C 0.2 km/h (0 Bft)
23.12.2009 22:00 2.4 C 91 % 996.8 hPa 0.0 l/m 0.1 km/h (0 Bft) SO 0.00 h 0 W/m 1.1 C 2.4 C 0.4 km/h (0 Bft)
23.12.2009 23:00 2.1 C 92 % 996.2 hPa 0.0 l/m 1.1 km/h (0 Bft) SO 0.00 h 0 W/m 1.0 C 2.1 C 2.0 km/h (1 Bft)
24.12.2009 00:00 2.2 C 94 % 996.4 hPa 0.4 l/m 1.1 km/h (0 Bft) W-NW 0.00 h 0 W/m 1.2 C 2.1 C 2.1 km/h (1 Bft)
24.12.2009 01:00 2.1 C 94 % 996.3 hPa 0.4 l/m 1.2 km/h (1 Bft) S-SO 0.00 h 0 W/m 1.3 C 2.1 C 2.1 km/h (1 Bft)
24.12.2009 02:00 1.9 C 95 % 996.4 hPa 0.0 l/m 1.5 km/h (1 Bft) O-SO 0.00 h 0 W/m 1.2 C 1.8 C 2.5 km/h (1 Bft)
24.12.2009 03:00 1.9 C 95 % 996.5 hPa 0.0 l/m 0.1 km/h (0 Bft) O 0.00 h 0 W/m 1.2 C 1.9 C 0.3 km/h (0 Bft)
24.12.2009 04:00 1.8 C 96 % 996.4 hPa 0.0 l/m 0.1 km/h (0 Bft) O 0.00 h 0 W/m 1.2 C 1.8 C 0.6 km/h (0 Bft)
24.12.2009 05:00 1.8 C 96 % 996.3 hPa 0.2 l/m 0.4 km/h (0 Bft) O 0.00 h 0 W/m 1.2 C 1.8 C 1.0 km/h (0 Bft)
24.12.2009 06:00 1.6 C 96 % 996.0 hPa 0.0 l/m 0.0 km/h (0 Bft) N 0.00 h 0 W/m 1.1 C 1.6 C 0.1 km/h (0 Bft)
24.12.2009 07:00 1.6 C 96 % 995.5 hPa 0.0 l/m 0.0 km/h (0 Bft) O 0.00 h 0 W/m 1.0 C 1.6 C 0.2 km/h (0 Bft)
24.12.2009 08:00 1.6 C 97 % 996.0 hPa 0.0 l/m 0.0 km/h (0 Bft) O 0.00 h 7 W/m 1.1 C 1.6 C 0.2 km/h (0 Bft)
24.12.2009 09:00 1.9 C 97 % 995.3 hPa 0.0 l/m 0.6 km/h (0 Bft) O 0.00 h 32 W/m 1.5 C 1.9 C 1.8 km/h (1 Bft)
24.12.2009 10:00 2.2 C 97 % 995.0 hPa 0.0 l/m 1.0 km/h (0 Bft) O-NO 0.00 h 27 W/m 1.8 C 2.2 C 2.9 km/h (1 Bft)
24.12.2009 11:00 2.3 C 97 % 994.8 hPa 0.0 l/m 1.8 km/h (1 Bft) O-SO 0.00 h 43 W/m 1.8 C 2.1 C 3.8 km/h (1 Bft)
24.12.2009 12:00 2.4 C 97 % 994.1 hPa 0.0 l/m 1.9 km/h (1 Bft) O-SO 0.00 h 34 W/m 2.0 C 2.2 C 3.8 km/h (1 Bft)
24.12.2009 13:00 2.7 C 97 % 993.3 hPa 0.4 l/m 1.4 km/h (1 Bft) O-SO 0.00 h 77 W/m 2.3 C 2.6 C 3.0 km/h (1 Bft)
24.12.2009 14:00 3.1 C 97 % 992.8 hPa 0.0 l/m 0.4 km/h (0 Bft) O-SO 0.00 h 54 W/m 2.7 C 3.1 C 1.3 km/h (1 Bft)
24.12.2009 15:00 3.2 C 96 % 992.3 hPa 0.0 l/m 1.0 km/h (0 Bft) O-SO 0.00 h 28 W/m 2.6 C 3.1 C 2.3 km/h (1 Bft)
24.12.2009 16:00 2.9 C 95 % 991.1 hPa 0.0 l/m 1.8 km/h (1 Bft) SO 0.00 h 8 W/m 2.2 C 2.7 C 3.7 km/h (1 Bft)
24.12.2009 17:00 2.6 C 95 % 989.4 hPa 0.0 l/m 1.9 km/h (1 Bft) O-SO 0.00 h 0 W/m 1.9 C 2.4 C 4.0 km/h (1 Bft)
24.12.2009 18:00 2.7 C 95 % 987.9 hPa 0.0 l/m 1.9 km/h (1 Bft) SO 0.00 h 0 W/m 2.0 C 2.5 C 4.0 km/h (1 Bft)
24.12.2009 19:00 2.7 C 94 % 986.9 hPa 0.0 l/m 0.4 km/h (0 Bft) O 0.00 h 0 W/m 1.8 C 2.7 C 1.3 km/h (1 Bft)
24.12.2009 20:00 2.6 C 94 % 986.7 hPa 0.0 l/m 0.5 km/h (0 Bft) O-NO 0.00 h 0 W/m 1.8 C 2.6 C 1.8 km/h (1 Bft)
24.12.2009 21:00 2.5 C 95 % 985.8 hPa 0.0 l/m 1.3 km/h (1 Bft) O-SO 0.00 h 0 W/m 1.8 C 2.4 C 3.0 km/h (1 Bft)
24.12.2009 22:00 2.2 C 95 % 986.8 hPa 0.0 l/m 2.1 km/h (1 Bft) O-SO 0.00 h 0 W/m 1.5 C 1.9 C 4.1 km/h (1 Bft)
24.12.2009 23:00 2.9 C 96 % 987.2 hPa 0.0 l/m 2.9 km/h (1 Bft) O-SO 0.00 h 0 W/m 2.3 C 2.6 C 4.8 km/h (1 Bft)
25.12.2009 00:00 3.1 C 96 % 988.6 hPa 1.0 l/m 2.6 km/h (1 Bft) S-SO 0.00 h 0 W/m 2.5 C 2.8 C 5.1 km/h (1 Bft)
25.12.2009 01:00 3.9 C 97 % 989.2 hPa 3.2 l/m 2.9 km/h (1 Bft) S-SO 0.00 h 0 W/m 3.4 C 3.6 C 5.7 km/h (1 Bft)
25.12.2009 02:00 4.7 C 97 % 989.2 hPa 0.0 l/m 3.4 km/h (1 Bft) SW 0.00 h 0 W/m 4.2 C 4.3 C 7.3 km/h (2 Bft)
25.12.2009 03:00 5.2 C 97 % 989.3 hPa 0.0 l/m 5.3 km/h (1 Bft) S-SW 0.00 h 0 W/m 4.8 C 4.2 C 10.0 km/h (2 Bft)
25.12.2009 04:00 5.8 C 96 % 989.5 hPa 0.0 l/m 9.9 km/h (2 Bft) S-SW 0.00 h 0 W/m 5.2 C 3.6 C 17.9 km/h (3 Bft)
25.12.2009 05:00 6.2 C 95 % 989.6 hPa 0.0 l/m 10.2 km/h (2 Bft) S-SO 0.00 h 0 W/m 5.5 C 4.1 C 18.5 km/h (3 Bft)
25.12.2009 06:00 6.9 C 92 % 991.1 hPa 0.2 l/m 13.1 km/h (3 Bft) W 0.00 h 0 W/m 5.7 C 4.5 C 21.1 km/h (4 Bft)
25.12.2009 07:00 8.8 C 75 % 992.8 hPa 0.0 l/m 24.8 km/h (4 Bft) W 0.00 h 0 W/m 4.6 C 5.4 C 36.5 km/h (5 Bft)
25.12.2009 08:00 7.5 C 69 % 995.7 hPa 0.0 l/m 27.8 km/h (4 Bft) W 0.00 h 9 W/m 2.3 C 3.6 C 41.8 km/h (6 Bft)
25.12.2009 09:00 6.4 C 68 % 998.1 hPa 0.0 l/m 23.9 km/h (4 Bft) W 0.00 h 24 W/m 1.0 C 2.4 C 34.9 km/h (5 Bft)
25.12.2009 10:00 6.1 C 69 % 999.4 hPa 0.0 l/m 17.8 km/h (3 Bft) W 0.00 h 60 W/m 0.9 C 2.8 C 26.4 km/h (4 Bft)
25.12.2009 11:00 5.9 C 71 % 1000.9 hPa 0.0 l/m 16.7 km/h (3 Bft) W 0.00 h 86 W/m 1.0 C 2.8 C 25.7 km/h (4 Bft)
25.12.2009 12:00 6.3 C 68 % 1002.0 hPa 0.0 l/m 16.7 km/h (3 Bft) W 0.33 h 163 W/m 0.8 C 3.1 C 25.4 km/h (4 Bft)
25.12.2009 13:00 6.0 C 69 % 1002.8 hPa 0.0 l/m 11.9 km/h (2 Bft) W 0.00 h 44 W/m 0.7 C 3.7 C 18.2 km/h (3 Bft)
25.12.2009 14:00 4.7 C 81 % 1004.1 hPa 0.4 l/m 9.3 km/h (2 Bft) W 0.00 h 38 W/m 1.8 C 2.7 C 15.0 km/h (3 Bft)
25.12.2009 15:00 4.3 C 84 % 1005.3 hPa 0.0 l/m 9.1 km/h (2 Bft) W 0.15 h 45 W/m 1.8 C 2.2 C 14.4 km/h (3 Bft)
25.12.2009 16:00 3.6 C 83 % 1006.9 hPa 0.8 l/m 9.9 km/h (2 Bft) W 0.00 h 14 W/m 1.0 C 1.5 C 15.1 km/h (3 Bft)
25.12.2009 17:00 2.7 C 89 % 1007.8 hPa 0.0 l/m 5.9 km/h (2 Bft) SW 0.00 h 0 W/m 1.0 C 1.4 C 9.3 km/h (2 Bft)
25.12.2009 18:00 2.9 C 87 % 1008.4 hPa 0.0 l/m 4.5 km/h (1 Bft) SW 0.00 h 0 W/m 1.0 C 2.2 C 7.3 km/h (2 Bft)
25.12.2009 19:00 3.2 C 82 % 1009.4 hPa 0.0 l/m 5.0 km/h (1 Bft) S-SW 0.00 h 0 W/m 0.5 C 2.2 C 8.4 km/h (2 Bft)
25.12.2009 20:00 3.6 C 76 % 1010.4 hPa 0.0 l/m 4.3 km/h (1 Bft) SW 0.00 h 0 W/m -0.2 C 2.9 C 7.4 km/h (2 Bft)
25.12.2009 21:00 3.8 C 73 % 1011.3 hPa 0.2 l/m 4.9 km/h (1 Bft) SW 0.00 h 0 W/m -0.6 C 2.9 C 8.0 km/h (2 Bft)
25.12.2009 22:00 4.1 C 67 % 1012.4 hPa 0.0 l/m 5.6 km/h (1 Bft) SW 0.00 h 0 W/m -1.6 C 2.9 C 8.9 km/h (2 Bft)
25.12.2009 23:00 4.4 C 60 % 1013.3 hPa 0.0 l/m 6.1 km/h (2 Bft) W 0.00 h 0 W/m -2.6 C 3.1 C 9.9 km/h (2 Bft)
26.12.2009 00:00 3.1 C 69 % 1013.2 hPa 0.0 l/m 1.5 km/h (1 Bft) S-SO 0.00 h 0 W/m -2.1 C 3.0 C 3.1 km/h (1 Bft)
26.12.2009 01:00 1.2 C 77 % 1013.0 hPa 0.0 l/m 3.3 km/h (1 Bft) O 0.00 h 0 W/m -2.3 C 0.5 C 4.9 km/h (1 Bft)
26.12.2009 02:00 0.3 C 80 % 1013.1 hPa 0.0 l/m 4.7 km/h (1 Bft) O-SO 0.00 h 0 W/m -2.7 C -1.1 C 6.4 km/h (2 Bft)
26.12.2009 03:00 0.0 C 82 % 1013.3 hPa 0.0 l/m 3.3 km/h (1 Bft) S-SO 0.00 h 0 W/m -2.7 C -0.7 C 5.0 km/h (1 Bft)
26.12.2009 04:00 -0.5 C 84 % 1013.5 hPa 0.0 l/m 2.7 km/h (1 Bft) O-SO 0.00 h 0 W/m -2.8 C -1.3 C 3.6 km/h (1 Bft)
26.12.2009 05:00 -1.4 C 86 % 1013.1 hPa 0.0 l/m 0.8 km/h (0 Bft) O-SO 0.00 h 0 W/m -3.4 C -1.4 C 1.2 km/h (1 Bft)
26.12.2009 06:00 -2.2 C 88 % 1012.8 hPa 0.0 l/m 0.2 km/h (0 Bft) O-SO 0.00 h 0 W/m -3.8 C -2.2 C 0.7 km/h (0 Bft)
26.12.2009 07:00 -2.6 C 90 % 1012.5 hPa 0.0 l/m 1.4 km/h (1 Bft) O-SO 0.00 h 0 W/m -4.0 C -2.8 C 2.6 km/h (1 Bft)
26.12.2009 08:00 -2.7 C 91 % 1012.2 hPa 0.0 l/m 0.1 km/h (0 Bft) O-SO 0.00 h 13 W/m -4.0 C -2.7 C 0.5 km/h (0 Bft)
26.12.2009 09:00 -2.7 C 92 % 1011.7 hPa 0.0 l/m 0.4 km/h (0 Bft) O-SO 0.23 h 55 W/m -3.8 C -2.7 C 1.1 km/h (1 Bft)
26.12.2009 10:00 -1.7 C 93 % 1011.0 hPa 0.0 l/m 0.0 km/h (0 Bft) O-SO 0.02 h 48 W/m -2.6 C -1.7 C 0.3 km/h (0 Bft)
26.12.2009 11:00 -0.2 C 95 % 1010.2 hPa 0.0 l/m 0.3 km/h (0 Bft) S 0.92 h 223 W/m -0.9 C -0.2 C 1.5 km/h (1 Bft)
26.12.2009 12:00 2.1 C 91 % 1009.5 hPa 0.0 l/m 0.9 km/h (0 Bft) S 1.00 h 275 W/m 0.7 C 2.1 C 2.8 km/h (1 Bft)
26.12.2009 13:00 3.7 C 75 % 1009.0 hPa 0.0 l/m 0.3 km/h (0 Bft) S-SW 0.42 h 160 W/m -0.4 C 3.7 C 1.1 km/h (1 Bft)
26.12.2009 14:00 3.5 C 71 % 1008.8 hPa 0.0 l/m 2.5 km/h (1 Bft) SO 0.00 h 83 W/m -1.3 C 3.4 C 3.9 km/h (1 Bft)
26.12.2009 15:00 2.5 C 75 % 1008.7 hPa 0.0 l/m 1.8 km/h (1 Bft) SO 0.00 h 58 W/m -1.5 C 2.5 C 3.2 km/h (1 Bft)
26.12.2009 16:00 1.6 C 77 % 1008.8 hPa 0.0 l/m 0.7 km/h (0 Bft) SO 0.03 h 16 W/m -1.9 C 1.5 C 1.2 km/h (1 Bft)
26.12.2009 17:00 -0.0 C 81 % 1009.3 hPa 0.0 l/m 1.7 km/h (1 Bft) SO 0.00 h 0 W/m -2.8 C -0.2 C 2.8 km/h (1 Bft)
26.12.2009 18:00 -0.7 C 85 % 1009.6 hPa 0.0 l/m 1.2 km/h (1 Bft) SO 0.00 h 0 W/m -2.9 C -0.7 C 2.2 km/h (1 Bft)
26.12.2009 19:00 -1.0 C 85 % 1009.8 hPa 0.0 l/m 0.7 km/h (0 Bft) O-NO 0.00 h 0 W/m -3.2 C -1.0 C 1.3 km/h (1 Bft)
26.12.2009 20:00 -1.3 C 87 % 1009.9 hPa 0.0 l/m 0.1 km/h (0 Bft) O-NO 0.00 h 0 W/m -3.2 C -1.3 C 0.2 km/h (0 Bft)
26.12.2009 21:00 -1.6 C 88 % 1010.0 hPa 0.0 l/m 0.2 km/h (0 Bft) O-NO 0.00 h 0 W/m -3.3 C -1.6 C 0.6 km/h (0 Bft)
26.12.2009 22:00 -1.8 C 90 % 1010.1 hPa 0.0 l/m 0.1 km/h (0 Bft) O-NO 0.00 h 0 W/m -3.3 C -1.8 C 0.5 km/h (0 Bft)
26.12.2009 23:00 -1.9 C 91 % 1010.2 hPa 0.0 l/m 0.0 km/h (0 Bft) N 0.00 h 0 W/m -3.3 C -1.9 C 0.2 km/h (0 Bft)
27.12.2009 00:00 -2.2 C 91 % 1010.3 hPa 0.0 l/m 0.0 km/h (0 Bft) N 0.00 h 0 W/m -3.4 C -2.2 C 0.0 km/h (0 Bft)
27.12.2009 01:00 -2.3 C 92 % 1010.3 hPa 0.0 l/m 0.1 km/h (0 Bft) O-NO 0.00 h 0 W/m -3.4 C -2.3 C 0.4 km/h (0 Bft)
27.12.2009 02:00 -2.7 C 91 % 1010.2 hPa 0.0 l/m 0.1 km/h (0 Bft) O-NO 0.00 h 0 W/m -3.8 C -2.7 C 0.3 km/h (0 Bft)
27.12.2009 03:00 -2.8 C 92 % 1010.4 hPa 0.0 l/m 0.1 km/h (0 Bft) O-NO 0.00 h 0 W/m -3.8 C -2.8 C 0.4 km/h (0 Bft)
27.12.2009 04:00 -2.9 C 93 % 1010.5 hPa 0.0 l/m 0.1 km/h (0 Bft) O-NO 0.00 h 0 W/m -3.9 C -2.9 C 0.2 km/h (0 Bft)
27.12.2009 05:00 -3.2 C 93 % 1010.7 hPa 0.0 l/m 0.0 km/h (0 Bft) N 0.00 h 0 W/m -4.2 C -3.2 C 0.0 km/h (0 Bft)
27.12.2009 06:00 -3.4 C 94 % 1010.9 hPa 0.0 l/m 0.1 km/h (0 Bft) O-NO 0.00 h 0 W/m -4.3 C -3.4 C 0.4 km/h (0 Bft)
27.12.2009 07:00 -3.5 C 94 % 1011.5 hPa 0.0 l/m 0.2 km/h (0 Bft) O-NO 0.00 h 0 W/m -4.3 C -3.5 C 0.7 km/h (0 Bft)
27.12.2009 08:00 -3.7 C 94 % 1012.2 hPa 0.0 l/m 0.0 km/h (0 Bft) O-NO 0.00 h 13 W/m -4.5 C -3.7 C 0.1 km/h (0 Bft)
27.12.2009 09:00 -3.4 C 95 % 1012.9 hPa 0.0 l/m 1.4 km/h (1 Bft) O-NO 0.00 h 31 W/m -4.1 C -3.4 C 2.4 km/h (1 Bft)
27.12.2009 10:00 -2.1 C 95 % 1012.9 hPa 0.0 l/m 1.7 km/h (1 Bft) S-SO 0.02 h 43 W/m -2.7 C -2.3 C 3.5 km/h (1 Bft)
27.12.2009 11:00 0.1 C 95 % 1012.1 hPa 0.2 l/m 3.7 km/h (1 Bft) S-SO 0.93 h 251 W/m -0.6 C -0.5 C 7.4 km/h (2 Bft)
27.12.2009 12:00 2.0 C 85 % 1011.0 hPa 0.0 l/m 3.5 km/h (1 Bft) S-SO 0.65 h 231 W/m -0.3 C 1.5 C 6.5 km/h (2 Bft)
27.12.2009 13:00 3.1 C 71 % 1010.1 hPa 0.0 l/m 3.9 km/h (1 Bft) S-SO 0.10 h 126 W/m -1.6 C 2.5 C 7.6 km/h (2 Bft)
27.12.2009 14:00 3.7 C 68 % 1009.2 hPa 0.0 l/m 1.7 km/h (1 Bft) NW 0.08 h 96 W/m -1.7 C 3.5 C 3.9 km/h (1 Bft)
27.12.2009 15:00 3.4 C 73 % 1009.0 hPa 0.0 l/m 2.3 km/h (1 Bft) NW 0.22 h 47 W/m -0.9 C 3.1 C 4.2 km/h (1 Bft)
27.12.2009 16:00 2.3 C 81 % 1009.8 hPa 0.4 l/m 3.6 km/h (1 Bft) W-NW 0.00 h 6 W/m -0.6 C 1.6 C 6.4 km/h (2 Bft)
27.12.2009 17:00 1.7 C 88 % 1010.0 hPa 0.0 l/m 1.6 km/h (1 Bft) S 0.00 h 0 W/m -0.1 C 1.6 C 3.5 km/h (1 Bft)
27.12.2009 18:00 1.6 C 90 % 1010.3 hPa 0.0 l/m 0.7 km/h (0 Bft) S 0.00 h 0 W/m 0.2 C 1.6 C 2.3 km/h (1 Bft)
27.12.2009 19:00 2.0 C 92 % 1010.6 hPa 0.0 l/m 2.7 km/h (1 Bft) W 0.00 h 0 W/m 0.8 C 1.4 C 5.2 km/h (1 Bft)
27.12.2009 20:00 2.7 C 90 % 1010.6 hPa 0.0 l/m 7.9 km/h (2 Bft) S-SO 0.00 h 0 W/m 1.3 C 0.5 C 14.2 km/h (3 Bft)
27.12.2009 21:00 3.2 C 87 % 1010.6 hPa 0.0 l/m 5.2 km/h (1 Bft) SW 0.00 h 0 W/m 1.2 C 2.2 C 8.5 km/h (2 Bft)
27.12.2009 22:00 3.9 C 82 % 1010.4 hPa 0.0 l/m 8.7 km/h (2 Bft) SW 0.00 h 0 W/m 1.1 C 2.0 C 13.3 km/h (3 Bft)
27.12.2009 23:00 3.4 C 86 % 1010.7 hPa 1.0 l/m 9.5 km/h (2 Bft) W 0.00 h 0 W/m 1.2 C 1.2 C 15.0 km/h (3 Bft)
Min-Datum _ 27.12.09 25.12.09 24.12.09 - 21.12.09 - - - 27.12.09 26.12.09 21.12.09
_ Min-Zeit 09:00 23:03 21:45 - 00:04 - - - 08:22 07:13 00:09
Minimum _ -3.8 C 59 % 985.6 hPa - 0.0 km/h (0 Bft) - - - -4.5 C -4.5 C 0.0 km/h (0 Bft)
Max-Datum _ 25.12.09 23.12.09 26.12.09 25.12.09 25.12.09 - 21.12.09 25.12.09 25.12.09 22.12.09 25.12.09
_ Max-Zeit 07:38 10:09 04:15 01:00 08:11 - 10:55 12:49 06:48 14:44 08:44
Maximum _ 8.9 C 99 % 1013.6 hPa 3.2 l/m 46.9 km/h
W (6 Bft)
- 0.02 h 403 W/m 6.7 C 8.4 C 67.8 km/h
W (8 Bft)
Durchschnitt _ 2.0 C 89 % 1000.9 hPa #22.6 l/m 2.9 km/h (1 Bft) W #8:27 h 72 W/m 0.3 C 1.5 C 5.2 km/h (1 Bft)
© Kaiko 2009